createdAt,value
2018-09-09T00:02:29.908Z,26.73
2018-09-09T00:05:04.573Z,29.80
2018-09-09T00:07:37.877Z,35.75
2018-09-09T00:10:11.749Z,30.83
2018-09-09T00:12:45.029Z,33.60
2018-09-09T00:15:18.317Z,31.67
2018-09-09T00:17:51.430Z,31.53
2018-09-09T00:20:25.632Z,31.73
2018-09-09T00:22:58.522Z,31.83
2018-09-09T00:25:31.515Z,34.07
2018-09-09T00:28:06.367Z,33.33
2018-09-09T00:30:40.464Z,32.87
2018-09-09T00:33:16.352Z,34.10
2018-09-09T00:35:51.122Z,32.83
2018-09-09T00:38:33.693Z,35.80
2018-09-09T00:44:03.555Z,44.50
2018-09-09T00:46:45.372Z,51.17
2018-09-09T00:49:28.402Z,39.77
2018-09-09T00:53:18.046Z,40.43
2018-09-09T00:56:01.439Z,41.00
2018-09-09T00:58:34.495Z,40.27
2018-09-09T01:01:14.790Z,42.45
2018-09-09T01:03:50.196Z,41.87
2018-09-09T01:06:24.920Z,51.27
2018-09-09T01:08:59.939Z,45.63
2018-09-09T01:11:33.528Z,55.30
2018-09-09T01:14:08.779Z,44.73
2018-09-09T01:16:43.422Z,39.47
2018-09-09T01:19:17.434Z,38.33
2018-09-09T01:21:50.578Z,32.77
2018-09-09T01:24:25.370Z,34.47
2018-09-09T01:26:58.636Z,38.95
2018-09-09T01:29:31.550Z,37.07
2018-09-09T01:32:04.574Z,34.93
2018-09-09T01:34:37.424Z,25.70
2018-09-09T01:37:10.549Z,25.90
2018-09-09T01:39:43.482Z,24.37
2018-09-09T01:42:16.626Z,28.97
2018-09-09T01:44:49.410Z,27.53
2018-09-09T01:47:22.371Z,22.20
2018-09-09T01:49:55.482Z,26.67
2018-09-09T01:52:28.529Z,29.67
2018-09-09T01:55:01.422Z,30.20
2018-09-09T01:57:36.871Z,26.83
2018-09-09T02:00:16.964Z,23.37
2018-09-09T02:02:54.847Z,13.30
2018-09-09T02:05:32.491Z,10.67
2018-09-09T02:08:11.924Z,10.63
2018-09-09T02:10:56.684Z,8.20
2018-09-09T02:13:38.305Z,8.80
2018-09-09T02:16:18.476Z,11.93
2018-09-09T02:18:56.487Z,11.20
2018-09-09T02:21:31.621Z,8.63
2018-09-09T02:24:08.536Z,7.07
2018-09-09T02:26:46.117Z,8.40
2018-09-09T02:29:24.226Z,9.47
2018-09-09T02:32:06.760Z,7.20
2018-09-09T02:34:49.581Z,6.83
2018-09-09T02:37:30.679Z,7.53
2018-09-09T02:40:15.859Z,10.27
2018-09-09T02:42:55.533Z,12.10
2018-09-09T02:45:39.961Z,8.97
2018-09-09T02:48:20.616Z,8.87
2018-09-09T02:51:00.514Z,10.35
2018-09-09T02:53:41.020Z,10.50
2018-09-09T02:56:16.819Z,9.33
2018-09-09T02:58:53.433Z,9.57
2018-09-09T03:01:29.353Z,10.40
2018-09-09T03:04:12.753Z,10.98
2018-09-09T03:06:58.708Z,10.27
2018-09-09T03:09:45.948Z,12.03
2018-09-09T03:12:30.398Z,12.70
2018-09-09T03:15:12.691Z,12.93
2018-09-09T03:17:57.522Z,13.97
2018-09-09T03:20:39.142Z,14.83
2018-09-09T03:23:20.665Z,12.80
2018-09-09T03:26:05.285Z,11.47
2018-09-09T03:28:42.953Z,10.75
2018-09-09T03:31:28.125Z,11.07
2018-09-09T03:34:14.609Z,11.27
2018-09-09T03:37:01.271Z,12.67
2018-09-09T03:39:47.045Z,9.67
2018-09-09T03:42:28.696Z,9.03
2018-09-09T03:45:06.977Z,7.57
2018-09-09T03:47:48.174Z,9.27
2018-09-09T03:50:21.353Z,9.27
2018-09-09T03:52:59.036Z,10.40
2018-09-09T03:55:40.275Z,11.07
2018-09-09T03:58:15.293Z,10.07
2018-09-09T04:00:52.393Z,9.93
2018-09-09T04:03:25.576Z,10.80
2018-09-09T04:05:58.716Z,10.47
2018-09-09T04:08:31.941Z,9.87
2018-09-09T04:11:11.223Z,10.93
2018-09-09T04:13:44.971Z,11.60
2018-09-09T04:16:17.979Z,9.60
2018-09-09T04:18:51.330Z,10.13
2018-09-09T04:21:24.404Z,10.27
2018-09-09T04:23:58.033Z,8.93
2018-09-09T04:26:31.358Z,9.40
2018-09-09T04:29:06.794Z,8.77
2018-09-09T04:31:40.006Z,8.83
2018-09-09T04:34:13.126Z,8.20
2018-09-09T04:36:46.558Z,9.20
2018-09-09T04:39:19.643Z,8.87
2018-09-09T04:41:52.867Z,8.63
2018-09-09T04:44:25.954Z,9.40
2018-09-09T04:46:58.791Z,9.23
2018-09-09T04:49:32.342Z,9.70
2018-09-09T04:52:05.531Z,10.07
2018-09-09T04:54:38.342Z,10.13
2018-09-09T04:57:11.485Z,10.63
2018-09-09T04:59:45.168Z,11.83
2018-09-09T05:02:18.262Z,10.73
2018-09-09T05:04:51.806Z,11.67
2018-09-09T05:07:24.913Z,10.83
2018-09-09T05:09:58.074Z,10.83
2018-09-09T05:12:31.246Z,10.17
2018-09-09T05:15:04.510Z,11.60
2018-09-09T05:17:38.094Z,10.40
2018-09-09T05:20:11.371Z,12.37
2018-09-09T05:22:44.871Z,11.63
2018-09-09T05:25:17.954Z,11.90
2018-09-09T05:27:51.625Z,12.33
2018-09-09T05:30:25.305Z,12.23
2018-09-09T05:32:59.646Z,11.97
2018-09-09T05:35:33.127Z,13.95
2018-09-09T05:38:06.844Z,11.90
2018-09-09T05:40:40.289Z,10.87
2018-09-09T05:43:14.074Z,14.18
2018-09-09T05:45:47.237Z,13.20
2018-09-09T05:48:20.616Z,12.95
2018-09-09T05:50:54.567Z,12.33
2018-09-09T05:53:27.732Z,12.63
2018-09-09T05:56:02.274Z,12.33
2018-09-09T05:58:35.431Z,12.27
2018-09-09T06:01:08.578Z,11.93
2018-09-09T06:03:41.929Z,14.90
2018-09-09T06:06:16.131Z,13.57
2018-09-09T06:08:51.071Z,13.77
2018-09-09T06:11:24.960Z,11.13
2018-09-09T06:13:59.408Z,14.28
2018-09-09T06:16:35.240Z,16.37
2018-09-09T06:19:08.336Z,11.90
2018-09-09T06:21:41.477Z,12.73
2018-09-09T06:24:14.469Z,12.97
2018-09-09T06:26:47.526Z,12.60
2018-09-09T06:29:20.548Z,13.75
2018-09-09T06:31:53.927Z,12.20
2018-09-09T06:34:27.034Z,11.87
2018-09-09T06:37:00.000Z,9.97
2018-09-09T06:46:23.666Z,10.57
2018-09-09T06:48:56.873Z,9.50
2018-09-09T06:51:29.799Z,9.93
2018-09-09T06:54:02.947Z,11.60
2018-09-09T06:56:36.170Z,11.33
2018-09-09T06:59:09.359Z,10.03
2018-09-09T07:01:42.517Z,10.30
2018-09-09T07:04:15.614Z,9.97
2018-09-09T07:06:48.653Z,10.37
2018-09-09T07:09:21.834Z,10.93
2018-09-09T07:11:54.900Z,11.03
2018-09-09T07:14:27.938Z,10.27
2018-09-09T07:17:00.792Z,9.47
2018-09-09T07:19:33.829Z,10.50
2018-09-09T07:22:06.812Z,12.33
2018-09-09T07:24:39.805Z,9.93
2018-09-09T07:27:13.095Z,10.40
2018-09-09T07:29:46.186Z,10.17
2018-09-09T07:32:19.333Z,10.70
2018-09-09T07:34:52.586Z,9.60
2018-09-09T07:37:25.666Z,9.93
2018-09-09T07:39:58.994Z,9.00
2018-09-09T07:42:32.834Z,10.72
2018-09-09T07:45:06.079Z,9.00
2018-09-09T07:47:39.386Z,8.97
2018-09-09T07:50:12.442Z,9.60
2018-09-09T07:52:45.650Z,9.43
2018-09-09T07:55:18.909Z,11.00
2018-09-09T07:57:51.900Z,10.60
2018-09-09T08:00:25.144Z,9.87
2018-09-09T08:02:58.658Z,10.50
2018-09-09T08:05:33.328Z,10.03
2018-09-09T08:08:06.597Z,9.60
2018-09-09T08:10:39.951Z,9.70
2018-09-09T08:13:13.199Z,9.60
2018-09-09T08:15:46.208Z,9.30
2018-09-09T08:18:19.602Z,10.67
2018-09-09T08:20:52.926Z,9.93
2018-09-09T08:23:26.037Z,10.00
2018-09-09T08:25:59.990Z,9.67
2018-09-09T08:28:33.117Z,8.87
2018-09-09T08:31:06.230Z,8.67
2018-09-09T08:33:39.842Z,8.90
2018-09-09T08:36:12.901Z,8.60
2018-09-09T08:38:46.312Z,8.63
2018-09-09T08:41:27.766Z,8.73
2018-09-09T08:44:15.446Z,6.93
2018-09-09T08:47:00.917Z,7.30
2018-09-09T08:49:47.841Z,7.47
2018-09-09T08:52:23.730Z,7.33
2018-09-09T08:55:08.430Z,6.40
2018-09-09T08:57:41.609Z,6.20
2018-09-09T09:00:14.809Z,6.77
2018-09-09T09:02:47.974Z,6.97
2018-09-09T09:05:21.047Z,7.93
2018-09-09T09:07:54.079Z,8.70
2018-09-09T09:10:27.323Z,9.20
2018-09-09T09:13:00.354Z,7.90
2018-09-09T09:15:33.698Z,8.37
2018-09-09T09:18:07.074Z,8.67
2018-09-09T09:20:40.272Z,8.53
2018-09-09T09:23:13.393Z,7.93
2018-09-09T09:25:50.551Z,9.65
2018-09-09T09:28:24.993Z,8.10
2018-09-09T09:30:58.273Z,8.83
2018-09-09T09:33:31.266Z,8.07
2018-09-09T09:36:04.378Z,9.77
2018-09-09T09:38:38.386Z,8.90
2018-09-09T09:41:11.815Z,8.87
2018-09-09T09:43:45.518Z,9.93
2018-09-09T09:46:18.677Z,10.40
2018-09-09T09:48:52.428Z,10.47
2018-09-09T09:51:25.453Z,9.80
2018-09-09T09:53:59.217Z,9.90
2018-09-09T09:56:32.746Z,10.55
2018-09-09T09:59:05.928Z,9.70
2018-09-09T10:01:39.179Z,10.17
2018-09-09T10:04:12.464Z,9.97
2018-09-09T10:06:45.973Z,9.63
2018-09-09T10:09:19.512Z,9.53
2018-09-09T10:11:52.915Z,9.60
2018-09-09T10:14:26.095Z,14.43
2018-09-09T10:18:28.350Z,8.73
2018-09-09T10:21:01.891Z,9.67
2018-09-09T10:23:35.575Z,9.67
2018-09-09T10:27:37.777Z,8.87
2018-09-09T10:30:12.468Z,9.15
2018-09-09T10:32:46.107Z,8.13
2018-09-09T10:35:19.147Z,8.50
2018-09-09T10:37:52.349Z,10.17
2018-09-09T10:40:25.245Z,8.67
2018-09-09T10:42:58.366Z,9.20
2018-09-09T10:45:31.266Z,9.63
2018-09-09T10:48:04.413Z,8.87
2018-09-09T10:50:37.822Z,9.07
2018-09-09T10:53:10.924Z,10.03
2018-09-09T10:55:44.321Z,9.20
2018-09-09T10:58:17.688Z,8.83
2018-09-09T11:00:50.986Z,10.98
2018-09-09T11:03:25.427Z,9.70
2018-09-09T11:05:58.974Z,11.37
2018-09-09T11:08:33.743Z,11.77
2018-09-09T11:11:07.173Z,8.93
2018-09-09T11:13:42.241Z,9.20
2018-09-09T11:16:16.647Z,8.40
2018-09-09T11:18:49.788Z,8.67
2018-09-09T11:21:23.209Z,23.73
2018-09-09T11:23:57.800Z,11.87
2018-09-09T11:26:31.303Z,12.27
2018-09-09T11:29:04.898Z,10.33
2018-09-09T11:31:39.488Z,9.00
2018-09-09T11:34:15.094Z,8.80
2018-09-09T11:36:48.563Z,9.40
2018-09-09T11:39:21.833Z,9.00
2018-09-09T11:41:54.918Z,9.17
2018-09-09T11:44:28.033Z,8.87
2018-09-09T11:47:01.216Z,10.33
2018-09-09T11:49:34.230Z,11.15
2018-09-09T11:52:07.380Z,11.43
2018-09-09T11:54:40.357Z,8.40
2018-09-09T11:57:13.572Z,11.40
2018-09-09T11:59:46.743Z,11.00
2018-09-09T12:02:19.691Z,10.57
2018-09-09T12:04:52.812Z,8.90
2018-09-09T12:07:25.690Z,8.30
2018-09-09T12:09:58.813Z,7.50
2018-09-09T12:12:32.007Z,8.37
2018-09-09T12:15:04.937Z,9.90
2018-09-09T12:17:38.184Z,12.90
2018-09-09T12:20:11.043Z,9.53
2018-09-09T12:22:44.639Z,8.93
2018-09-09T12:25:24.417Z,9.80
2018-09-09T12:28:03.594Z,10.45
2018-09-09T12:30:47.258Z,8.63
2018-09-09T12:33:25.745Z,8.60
2018-09-09T12:36:07.552Z,8.87
2018-09-09T12:41:34.233Z,10.53
2018-09-09T12:44:16.551Z,12.80
2018-09-09T12:46:58.349Z,9.50
2018-09-09T12:49:34.939Z,9.87
2018-09-09T12:52:16.027Z,10.13
2018-09-09T12:54:49.181Z,10.87
2018-09-09T12:57:22.123Z,9.20
2018-09-09T12:59:55.625Z,8.63
2018-09-09T13:02:28.521Z,9.13
2018-09-09T13:07:51.317Z,12.10
2018-09-09T13:10:30.410Z,10.40
2018-09-09T13:13:14.020Z,8.87
2018-09-09T13:15:50.787Z,11.60
2018-09-09T13:18:24.109Z,15.48
2018-09-09T13:21:04.035Z,20.83
2018-09-09T13:23:43.509Z,15.23
2018-09-09T13:26:17.013Z,13.62
2018-09-09T13:28:57.461Z,11.00
2018-09-09T13:31:31.016Z,9.47
2018-09-09T13:34:08.568Z,12.93
2018-09-09T13:36:41.660Z,13.13
2018-09-09T13:39:15.521Z,14.87
2018-09-09T13:41:49.189Z,8.75
2018-09-09T13:44:23.318Z,10.37
2018-09-09T13:46:57.693Z,10.03
2018-09-09T13:49:31.936Z,7.60
2018-09-09T13:52:05.093Z,6.60
2018-09-09T13:54:38.243Z,6.87
2018-09-09T13:57:11.409Z,8.60
2018-09-09T13:59:44.601Z,5.63
2018-09-09T14:02:17.712Z,27.43
2018-09-09T14:04:50.878Z,6.92
2018-09-09T14:07:24.685Z,7.50
2018-09-09T14:11:26.994Z,13.97
2018-09-09T14:14:00.377Z,8.80
2018-09-09T14:16:40.042Z,4.20
2018-09-09T14:19:20.797Z,4.50
2018-09-09T14:21:56.408Z,7.50
2018-09-09T14:24:30.792Z,8.87
2018-09-09T14:27:04.084Z,8.93
2018-09-09T14:29:37.221Z,8.28
2018-09-09T14:32:10.094Z,13.43
2018-09-09T14:34:43.359Z,8.13
2018-09-09T14:37:17.117Z,4.60
2018-09-09T14:39:50.380Z,6.37
2018-09-09T14:42:24.075Z,8.97
2018-09-09T14:44:57.107Z,6.23
2018-09-09T14:47:30.190Z,9.67
2018-09-09T14:50:03.282Z,4.80
2018-09-09T14:52:36.602Z,4.80
2018-09-09T14:55:09.604Z,6.57
2018-09-09T14:57:44.084Z,7.70
2018-09-09T15:00:17.435Z,10.53
2018-09-09T15:02:50.732Z,25.10
2018-09-09T15:05:23.592Z,9.23
2018-09-09T15:07:56.949Z,6.97
2018-09-09T15:10:30.097Z,9.60
2018-09-09T15:13:03.662Z,5.13
2018-09-09T15:15:37.154Z,4.50
2018-09-09T15:18:10.507Z,6.80
2018-09-09T15:20:44.505Z,6.25
2018-09-09T15:23:18.146Z,3.83
2018-09-09T15:25:51.517Z,5.50
2018-09-09T15:28:25.177Z,7.80
2018-09-09T15:30:58.777Z,5.93
2018-09-09T15:33:33.589Z,6.10
2018-09-09T15:36:06.889Z,5.30
2018-09-09T15:38:40.279Z,5.78
2018-09-09T15:41:13.742Z,4.87
2018-09-09T15:43:47.664Z,14.43
2018-09-09T15:46:22.008Z,3.30
2018-09-09T15:48:55.277Z,3.20
2018-09-09T15:51:28.561Z,4.13
2018-09-09T15:54:05.848Z,5.27
2018-09-09T15:56:40.416Z,5.40
2018-09-09T15:59:13.705Z,4.30
2018-09-09T16:01:46.970Z,4.83
2018-09-09T16:04:20.048Z,4.53
2018-09-09T16:06:53.417Z,5.30
2018-09-09T16:09:30.001Z,5.93
2018-09-09T16:12:03.156Z,4.20
2018-09-09T16:14:38.341Z,4.23
2018-09-09T16:17:15.128Z,3.60
2018-09-09T16:19:49.720Z,4.67
2018-09-09T16:22:22.969Z,7.95
2018-09-09T16:24:56.804Z,3.47
2018-09-09T16:27:29.745Z,3.80
2018-09-09T16:30:02.848Z,5.65
2018-09-09T16:32:36.219Z,3.07
2018-09-09T16:35:09.476Z,4.20
2018-09-09T16:37:42.579Z,4.40
2018-09-09T16:40:16.033Z,4.43
2018-09-09T16:42:49.165Z,5.00
2018-09-09T16:45:22.321Z,19.57
2018-09-09T16:47:55.060Z,3.73
2018-09-09T16:50:29.393Z,4.90
2018-09-09T16:53:02.364Z,5.00
2018-09-09T16:55:35.469Z,5.77
2018-09-09T16:58:08.340Z,5.07
2018-09-09T17:00:53.541Z,4.17
2018-09-09T17:08:26.595Z,7.30
2018-09-09T17:10:59.808Z,4.93
2018-09-09T17:13:33.344Z,6.33
2018-09-09T17:16:06.763Z,5.07
2018-09-09T17:18:40.117Z,4.07
2018-09-09T17:21:13.815Z,4.10
2018-09-09T17:23:47.301Z,4.23
2018-09-09T17:26:20.949Z,6.63
2018-09-09T17:28:54.753Z,8.47
2018-09-09T17:31:28.016Z,8.70
2018-09-09T17:34:01.183Z,6.27
2018-09-09T17:36:34.413Z,7.13
2018-09-09T17:39:09.787Z,7.13
2018-09-09T17:41:43.400Z,7.70
2018-09-09T17:44:16.523Z,8.80
2018-09-09T17:46:49.470Z,8.00
2018-09-09T17:49:22.427Z,8.80
2018-09-09T17:51:55.658Z,9.47
2018-09-09T17:54:28.629Z,9.95
2018-09-09T17:57:01.425Z,10.27
2018-09-09T17:59:34.282Z,9.10
2018-09-09T18:02:07.155Z,9.73
2018-09-09T18:04:40.522Z,10.32
2018-09-09T18:07:13.932Z,11.57
2018-09-09T18:09:47.373Z,8.47
2018-09-09T18:12:20.514Z,9.03
2018-09-09T18:14:53.777Z,8.70
2018-09-09T18:17:27.041Z,8.00
2018-09-09T18:20:00.293Z,7.23
2018-09-09T18:22:34.379Z,8.60
2018-09-09T18:25:07.614Z,8.78
2018-09-09T18:27:42.212Z,12.27
2018-09-09T18:30:16.695Z,11.13
2018-09-09T18:32:50.167Z,14.07
2018-09-09T18:35:23.315Z,20.23
2018-09-09T18:37:56.671Z,19.63
2018-09-09T18:40:30.378Z,22.60
2018-09-09T18:43:03.564Z,21.93
2018-09-09T18:45:36.827Z,22.80
2018-09-09T18:48:10.150Z,21.47
2018-09-09T18:50:43.403Z,18.50
2018-09-09T18:53:17.702Z,17.53
2018-09-09T18:55:51.130Z,16.53
2018-09-09T18:58:24.906Z,17.90
2018-09-09T19:00:58.129Z,16.05
2018-09-09T19:03:31.208Z,17.17
2018-09-09T19:06:05.700Z,17.17
2018-09-09T19:08:38.783Z,20.17
2018-09-09T19:11:12.025Z,21.55
2018-09-09T19:13:45.551Z,20.23
2018-09-09T19:16:18.749Z,24.00
2018-09-09T19:18:54.198Z,26.85
2018-09-09T19:21:31.815Z,23.10
2018-09-09T19:24:07.290Z,25.27
2018-09-09T19:26:40.570Z,24.00
2018-09-09T19:29:15.335Z,22.17
2018-09-09T19:31:48.226Z,25.20
2018-09-09T19:34:21.355Z,24.63
2018-09-09T19:36:54.203Z,21.87
2018-09-09T19:39:27.350Z,24.03
2018-09-09T19:42:00.536Z,27.15
2018-09-09T19:44:33.840Z,28.57
2018-09-09T19:47:07.161Z,20.10
2018-09-09T19:49:40.186Z,19.93
2018-09-09T19:52:13.494Z,16.27
2018-09-09T19:54:46.781Z,17.77
2018-09-09T19:57:19.984Z,17.30
2018-09-09T19:59:53.358Z,18.50
2018-09-09T20:02:26.576Z,17.53
2018-09-09T20:05:00.123Z,13.80
2018-09-09T20:07:33.559Z,13.43
2018-09-09T20:10:06.946Z,15.07
2018-09-09T20:12:41.321Z,13.47
2018-09-09T20:15:14.845Z,19.23
2018-09-09T20:17:48.118Z,18.83
2018-09-09T20:20:27.794Z,19.27
2018-09-09T20:23:01.377Z,18.30
2018-09-09T20:25:34.681Z,26.03
2018-09-09T20:28:08.176Z,18.30
2018-09-09T20:30:41.677Z,18.73
2018-09-09T20:33:14.886Z,18.93
2018-09-09T20:35:48.354Z,17.87
2018-09-09T20:38:21.922Z,18.53
2018-09-09T20:40:55.068Z,19.47
2018-09-09T20:43:29.450Z,18.47
2018-09-09T20:46:02.534Z,17.93
2018-09-09T20:48:36.025Z,23.60
2018-09-09T20:51:09.399Z,23.03
2018-09-09T20:53:42.733Z,20.97
2018-09-09T20:56:15.755Z,25.68
2018-09-09T20:58:49.097Z,21.37
2018-09-09T21:01:23.411Z,22.40
2018-09-09T21:03:56.654Z,26.52
2018-09-09T21:06:30.199Z,24.67
2018-09-09T21:09:03.336Z,25.43
2018-09-09T21:11:36.685Z,24.63
2018-09-09T21:14:10.339Z,24.60
2018-09-09T21:27:55.253Z,24.13
2018-09-09T21:30:30.037Z,25.80
2018-09-09T21:33:03.378Z,27.52
2018-09-09T21:35:36.663Z,27.50
2018-09-09T21:38:09.787Z,28.03
2018-09-09T21:40:42.991Z,28.85
2018-09-09T21:43:16.173Z,27.73
2018-09-09T21:45:49.221Z,28.87
2018-09-09T21:48:22.353Z,30.20
2018-09-09T21:50:55.902Z,33.40
2018-09-09T21:53:29.473Z,31.50
2018-09-09T21:56:02.833Z,30.20
2018-09-09T21:58:36.254Z,30.73
2018-09-09T22:01:14.255Z,36.42
2018-09-09T22:03:47.688Z,32.73
2018-09-09T22:06:20.867Z,36.47
2018-09-09T22:08:54.295Z,38.85
2018-09-09T22:11:27.340Z,36.47
2018-09-09T22:14:00.408Z,38.23
2018-09-09T22:16:33.799Z,43.48
2018-09-09T22:19:07.974Z,39.53
2018-09-09T22:21:41.434Z,45.83
2018-09-09T22:24:14.580Z,38.33
2018-09-09T22:26:48.478Z,39.37
2018-09-09T22:29:21.665Z,41.73
2018-09-09T22:31:54.822Z,45.97
2018-09-09T22:34:28.180Z,44.30
2018-09-09T22:37:00.958Z,46.97
2018-09-09T22:39:33.929Z,48.87
2018-09-09T22:42:08.451Z,47.80
2018-09-09T22:44:42.141Z,43.57
2018-09-09T22:47:15.226Z,47.37
2018-09-09T22:49:48.280Z,50.80
2018-09-09T22:52:21.766Z,53.00
2018-09-09T22:54:54.797Z,55.43
2018-09-09T22:57:27.703Z,56.97
2018-09-09T23:00:00.657Z,58.73
2018-09-09T23:02:33.590Z,59.47
2018-09-09T23:05:06.634Z,60.85
2018-09-09T23:07:39.565Z,59.07
2018-09-09T23:10:13.101Z,53.07
2018-09-09T23:12:45.846Z,51.63
2018-09-09T23:15:23.346Z,52.60
2018-09-09T23:17:56.252Z,58.80
2018-09-09T23:20:29.141Z,49.63
2018-09-09T23:23:02.026Z,49.40
2018-09-09T23:25:35.146Z,49.47
2018-09-09T23:28:08.457Z,46.07
2018-09-09T23:30:41.349Z,41.70
2018-09-09T23:33:15.876Z,43.95
2018-09-09T23:35:48.849Z,34.20
2018-09-09T23:38:22.000Z,34.83
2018-09-09T23:40:55.893Z,27.53
2018-09-09T23:43:29.365Z,25.62
2018-09-09T23:46:02.376Z,20.67
2018-09-09T23:48:35.264Z,20.60
2018-09-09T23:51:08.553Z,20.00
2018-09-09T23:53:41.530Z,16.83
2018-09-09T23:56:14.929Z,13.43
2018-09-09T23:58:48.046Z,14.68
